sensor_id;sensor_type;location;lat;lon;timestamp;temperature;humidity
37052;DHT22;22964;52.272;13.356;2022-08-03T00:01:52;22.90;42.90
37052;DHT22;22964;52.272;13.356;2022-08-03T00:04:18;22.90;43.10
37052;DHT22;22964;52.272;13.356;2022-08-03T00:06:44;22.80;43.30
37052;DHT22;22964;52.272;13.356;2022-08-03T00:09:10;22.80;43.30
37052;DHT22;22964;52.272;13.356;2022-08-03T00:11:36;22.70;43.40
37052;DHT22;22964;52.272;13.356;2022-08-03T00:14:03;22.70;43.50
37052;DHT22;22964;52.272;13.356;2022-08-03T00:16:29;22.60;43.60
37052;DHT22;22964;52.272;13.356;2022-08-03T00:18:55;22.60;43.60
37052;DHT22;22964;52.272;13.356;2022-08-03T00:21:20;22.60;43.70
37052;DHT22;22964;52.272;13.356;2022-08-03T00:23:46;22.50;43.80
37052;DHT22;22964;52.272;13.356;2022-08-03T00:26:12;22.50;44.10
37052;DHT22;22964;52.272;13.356;2022-08-03T00:28:38;22.50;44.30
37052;DHT22;22964;52.272;13.356;2022-08-03T00:31:03;22.50;44.30
37052;DHT22;22964;52.272;13.356;2022-08-03T00:33:29;22.40;44.40
37052;DHT22;22964;52.272;13.356;2022-08-03T00:35:55;22.40;44.40
37052;DHT22;22964;52.272;13.356;2022-08-03T00:38:20;22.40;44.40
37052;DHT22;22964;52.272;13.356;2022-08-03T00:40:46;22.40;44.40
37052;DHT22;22964;52.272;13.356;2022-08-03T00:43:12;22.40;44.50
37052;DHT22;22964;52.272;13.356;2022-08-03T00:45:39;22.40;44.50
37052;DHT22;22964;52.272;13.356;2022-08-03T00:48:08;22.40;44.70
37052;DHT22;22964;52.272;13.356;2022-08-03T00:50:35;22.40;44.80
37052;DHT22;22964;52.272;13.356;2022-08-03T00:53:03;22.40;44.60
37052;DHT22;22964;52.272;13.356;2022-08-03T00:55:29;22.30;44.70
37052;DHT22;22964;52.272;13.356;2022-08-03T00:57:55;22.30;44.80
37052;DHT22;22964;52.272;13.356;2022-08-03T01:00:25;22.30;44.80
37052;DHT22;22964;52.272;13.356;2022-08-03T01:02:52;22.30;45.10
37052;DHT22;22964;52.272;13.356;2022-08-03T01:05:19;22.30;44.80
37052;DHT22;22964;52.272;13.356;2022-08-03T01:07:59;22.20;45.00
37052;DHT22;22964;52.272;13.356;2022-08-03T01:10:51;22.20;45.50
37052;DHT22;22964;52.272;13.356;2022-08-03T01:16:11;22.10;45.30
37052;DHT22;22964;52.272;13.356;2022-08-03T01:19:34;22.10;45.70
37052;DHT22;22964;52.272;13.356;2022-08-03T01:27:25;22.10;44.90
37052;DHT22;22964;52.272;13.356;2022-08-03T01:32:30;22.00;46.10
37052;DHT22;22964;52.272;13.356;2022-08-03T01:35:04;22.00;46.00
37052;DHT22;22964;52.272;13.356;2022-08-03T01:38:01;22.00;46.00
37052;DHT22;22964;52.272;13.356;2022-08-03T01:40:26;22.00;46.30
37052;DHT22;22964;52.272;13.356;2022-08-03T01:42:55;22.00;46.10
37052;DHT22;22964;52.272;13.356;2022-08-03T01:45:23;22.00;46.40
37052;DHT22;22964;52.272;13.356;2022-08-03T01:47:50;22.10;46.60
37052;DHT22;22964;52.272;13.356;2022-08-03T01:50:21;22.10;46.50
37052;DHT22;22964;52.272;13.356;2022-08-03T01:52:48;22.10;47.50
37052;DHT22;22964;52.272;13.356;2022-08-03T01:55:17;22.20;46.50
37052;DHT22;22964;52.272;13.356;2022-08-03T01:57:44;22.20;46.60
37052;DHT22;22964;52.272;13.356;2022-08-03T02:00:12;22.20;46.50
37052;DHT22;22964;52.272;13.356;2022-08-03T02:02:42;22.20;46.50
37052;DHT22;22964;52.272;13.356;2022-08-03T02:05:10;22.20;46.50
37052;DHT22;22964;52.272;13.356;2022-08-03T02:07:39;22.20;46.50
37052;DHT22;22964;52.272;13.356;2022-08-03T02:10:06;22.20;46.60
37052;DHT22;22964;52.272;13.356;2022-08-03T02:12:34;22.20;46.60
37052;DHT22;22964;52.272;13.356;2022-08-03T02:15:03;22.30;46.80
37052;DHT22;22964;52.272;13.356;2022-08-03T02:17:31;22.30;46.70
37052;DHT22;22964;52.272;13.356;2022-08-03T02:19:59;22.30;46.90
37052;DHT22;22964;52.272;13.356;2022-08-03T02:22:25;22.30;46.80
37052;DHT22;22964;52.272;13.356;2022-08-03T02:24:52;22.30;46.70
37052;DHT22;22964;52.272;13.356;2022-08-03T02:27:28;22.30;46.80
37052;DHT22;22964;52.272;13.356;2022-08-03T02:30:03;22.30;47.50
37052;DHT22;22964;52.272;13.356;2022-08-03T02:32:33;22.30;47.40
37052;DHT22;22964;52.272;13.356;2022-08-03T02:35:01;22.40;47.10
37052;DHT22;22964;52.272;13.356;2022-08-03T02:37:31;22.40;47.10
37052;DHT22;22964;52.272;13.356;2022-08-03T02:40:01;22.40;47.20
37052;DHT22;22964;52.272;13.356;2022-08-03T02:42:29;22.40;47.20
37052;DHT22;22964;52.272;13.356;2022-08-03T02:44:58;22.40;47.00
37052;DHT22;22964;52.272;13.356;2022-08-03T02:47:27;22.40;47.10
37052;DHT22;22964;52.272;13.356;2022-08-03T02:49:54;22.40;47.10
37052;DHT22;22964;52.272;13.356;2022-08-03T02:52:24;22.40;47.00
37052;DHT22;22964;52.272;13.356;2022-08-03T02:54:52;22.40;47.10
37052;DHT22;22964;52.272;13.356;2022-08-03T02:57:19;22.40;47.10
37052;DHT22;22964;52.272;13.356;2022-08-03T02:59:46;22.50;47.20
37052;DHT22;22964;52.272;13.356;2022-08-03T03:02:13;22.50;47.20
37052;DHT22;22964;52.272;13.356;2022-08-03T03:04:41;22.50;47.10
37052;DHT22;22964;52.272;13.356;2022-08-03T03:07:07;22.50;47.10
37052;DHT22;22964;52.272;13.356;2022-08-03T03:09:33;22.60;47.10
37052;DHT22;22964;52.272;13.356;2022-08-03T03:11:59;22.60;47.00
37052;DHT22;22964;52.272;13.356;2022-08-03T03:14:27;22.60;47.00
37052;DHT22;22964;52.272;13.356;2022-08-03T03:16:54;22.60;47.90
37052;DHT22;22964;52.272;13.356;2022-08-03T03:19:20;22.60;47.20
37052;DHT22;22964;52.272;13.356;2022-08-03T03:21:47;22.60;47.20
37052;DHT22;22964;52.272;13.356;2022-08-03T03:24:14;22.60;47.10
37052;DHT22;22964;52.272;13.356;2022-08-03T03:26:41;22.60;47.10
37052;DHT22;22964;52.272;13.356;2022-08-03T03:29:07;22.60;47.10
37052;DHT22;22964;52.272;13.356;2022-08-03T03:31:34;22.60;47.20
37052;DHT22;22964;52.272;13.356;2022-08-03T03:34:00;22.60;47.40
37052;DHT22;22964;52.272;13.356;2022-08-03T03:36:26;22.60;47.30
37052;DHT22;22964;52.272;13.356;2022-08-03T03:38:51;22.60;47.50
37052;DHT22;22964;52.272;13.356;2022-08-03T03:41:17;22.60;47.70
37052;DHT22;22964;52.272;13.356;2022-08-03T03:43:43;22.60;47.70
37052;DHT22;22964;52.272;13.356;2022-08-03T03:46:11;22.60;47.80
37052;DHT22;22964;52.272;13.356;2022-08-03T03:48:38;22.60;48.20
37052;DHT22;22964;52.272;13.356;2022-08-03T03:51:04;22.60;48.00
37052;DHT22;22964;52.272;13.356;2022-08-03T03:53:30;22.60;48.10
37052;DHT22;22964;52.272;13.356;2022-08-03T03:55:55;22.60;48.10
37052;DHT22;22964;52.272;13.356;2022-08-03T03:58:21;22.50;48.10
37052;DHT22;22964;52.272;13.356;2022-08-03T04:00:47;22.50;48.10
37052;DHT22;22964;52.272;13.356;2022-08-03T04:03:12;22.50;48.20
37052;DHT22;22964;52.272;13.356;2022-08-03T04:05:38;22.50;48.30
37052;DHT22;22964;52.272;13.356;2022-08-03T04:08:22;22.50;48.30
37052;DHT22;22964;52.272;13.356;2022-08-03T04:11:19;22.50;48.40
37052;DHT22;22964;52.272;13.356;2022-08-03T04:13:56;22.50;49.00
37052;DHT22;22964;52.272;13.356;2022-08-03T04:16:26;22.40;48.90
37052;DHT22;22964;52.272;13.356;2022-08-03T04:18:58;22.40;48.70
37052;DHT22;22964;52.272;13.356;2022-08-03T04:21:25;22.50;48.80
37052;DHT22;22964;52.272;13.356;2022-08-03T04:23:54;22.50;48.10
37052;DHT22;22964;52.272;13.356;2022-08-03T04:26:21;22.50;48.40
37052;DHT22;22964;52.272;13.356;2022-08-03T04:28:50;22.50;48.60
37052;DHT22;22964;52.272;13.356;2022-08-03T04:31:19;22.50;48.40
37052;DHT22;22964;52.272;13.356;2022-08-03T04:33:45;22.50;48.30
37052;DHT22;22964;52.272;13.356;2022-08-03T04:36:15;22.50;48.10
37052;DHT22;22964;52.272;13.356;2022-08-03T04:39:03;22.50;48.20
37052;DHT22;22964;52.272;13.356;2022-08-03T04:41:31;22.50;48.70
37052;DHT22;22964;52.272;13.356;2022-08-03T04:43:58;22.50;48.20
37052;DHT22;22964;52.272;13.356;2022-08-03T04:46:33;22.50;48.30
37052;DHT22;22964;52.272;13.356;2022-08-03T04:49:00;22.60;48.40
37052;DHT22;22964;52.272;13.356;2022-08-03T04:51:26;22.60;48.30
37052;DHT22;22964;52.272;13.356;2022-08-03T04:53:53;22.70;48.30
37052;DHT22;22964;52.272;13.356;2022-08-03T04:56:19;22.70;48.30
37052;DHT22;22964;52.272;13.356;2022-08-03T04:58:44;22.80;48.40
37052;DHT22;22964;52.272;13.356;2022-08-03T05:01:10;22.90;48.40
37052;DHT22;22964;52.272;13.356;2022-08-03T05:03:36;22.90;48.30
37052;DHT22;22964;52.272;13.356;2022-08-03T05:06:01;23.00;48.30
37052;DHT22;22964;52.272;13.356;2022-08-03T05:08:27;23.00;48.30
37052;DHT22;22964;52.272;13.356;2022-08-03T05:10:54;23.10;48.40
37052;DHT22;22964;52.272;13.356;2022-08-03T05:13:19;23.20;48.50
37052;DHT22;22964;52.272;13.356;2022-08-03T05:15:45;23.30;48.30
37052;DHT22;22964;52.272;13.356;2022-08-03T05:18:10;23.40;47.90
37052;DHT22;22964;52.272;13.356;2022-08-03T05:20:36;23.50;47.50
37052;DHT22;22964;52.272;13.356;2022-08-03T05:23:02;23.60;47.30
37052;DHT22;22964;52.272;13.356;2022-08-03T05:25:29;23.70;47.20
37052;DHT22;22964;52.272;13.356;2022-08-03T05:27:54;23.80;47.30
37052;DHT22;22964;52.272;13.356;2022-08-03T05:30:21;23.90;47.20
37052;DHT22;22964;52.272;13.356;2022-08-03T05:32:47;24.00;47.90
37052;DHT22;22964;52.272;13.356;2022-08-03T05:35:12;24.10;48.00
37052;DHT22;22964;52.272;13.356;2022-08-03T05:37:38;24.30;47.00
37052;DHT22;22964;52.272;13.356;2022-08-03T05:40:04;24.40;46.60
37052;DHT22;22964;52.272;13.356;2022-08-03T05:42:30;24.50;46.30
37052;DHT22;22964;52.272;13.356;2022-08-03T05:44:56;24.60;45.90
37052;DHT22;22964;52.272;13.356;2022-08-03T05:47:22;24.80;45.60
37052;DHT22;22964;52.272;13.356;2022-08-03T05:49:48;25.00;45.50
37052;DHT22;22964;52.272;13.356;2022-08-03T05:52:13;25.00;45.30
37052;DHT22;22964;52.272;13.356;2022-08-03T05:54:39;25.20;45.20
37052;DHT22;22964;52.272;13.356;2022-08-03T05:57:05;25.30;45.00
37052;DHT22;22964;52.272;13.356;2022-08-03T05:59:30;25.40;44.80
37052;DHT22;22964;52.272;13.356;2022-08-03T06:01:56;25.60;44.80
37052;DHT22;22964;52.272;13.356;2022-08-03T06:04:22;25.70;44.60
37052;DHT22;22964;52.272;13.356;2022-08-03T06:06:48;25.80;44.50
37052;DHT22;22964;52.272;13.356;2022-08-03T06:09:15;26.00;44.40
37052;DHT22;22964;52.272;13.356;2022-08-03T06:11:41;26.10;44.00
37052;DHT22;22964;52.272;13.356;2022-08-03T06:14:07;26.20;44.90
37052;DHT22;22964;52.272;13.356;2022-08-03T06:16:33;26.40;44.10
37052;DHT22;22964;52.272;13.356;2022-08-03T06:18:59;26.50;43.70
37052;DHT22;22964;52.272;13.356;2022-08-03T06:21:25;26.70;43.70
37052;DHT22;22964;52.272;13.356;2022-08-03T06:23:51;26.80;43.50
37052;DHT22;22964;52.272;13.356;2022-08-03T06:26:16;27.00;43.40
37052;DHT22;22964;52.272;13.356;2022-08-03T06:28:44;27.10;43.00
37052;DHT22;22964;52.272;13.356;2022-08-03T06:31:09;27.30;42.80
37052;DHT22;22964;52.272;13.356;2022-08-03T06:33:35;27.50;42.60
37052;DHT22;22964;52.272;13.356;2022-08-03T06:36:01;27.60;42.50
37052;DHT22;22964;52.272;13.356;2022-08-03T06:38:27;27.70;42.40
37052;DHT22;22964;52.272;13.356;2022-08-03T06:40:53;27.80;42.20
37052;DHT22;22964;52.272;13.356;2022-08-03T06:43:19;28.00;42.00
37052;DHT22;22964;52.272;13.356;2022-08-03T06:45:45;28.10;41.90
37052;DHT22;22964;52.272;13.356;2022-08-03T06:48:11;28.30;41.90
37052;DHT22;22964;52.272;13.356;2022-08-03T06:50:39;28.40;41.70
37052;DHT22;22964;52.272;13.356;2022-08-03T06:53:09;28.60;41.40
37052;DHT22;22964;52.272;13.356;2022-08-03T06:55:35;28.80;41.40
37052;DHT22;22964;52.272;13.356;2022-08-03T06:58:00;28.90;40.90
37052;DHT22;22964;52.272;13.356;2022-08-03T07:00:26;29.10;41.40
37052;DHT22;22964;52.272;13.356;2022-08-03T07:02:52;29.30;40.60
37052;DHT22;22964;52.272;13.356;2022-08-03T07:05:18;29.40;40.20
37052;DHT22;22964;52.272;13.356;2022-08-03T07:07:44;29.60;40.00
37052;DHT22;22964;52.272;13.356;2022-08-03T07:10:10;29.80;39.90
37052;DHT22;22964;52.272;13.356;2022-08-03T07:12:36;30.00;39.70
37052;DHT22;22964;52.272;13.356;2022-08-03T07:15:04;30.10;39.20
37052;DHT22;22964;52.272;13.356;2022-08-03T07:17:34;30.30;38.80
37052;DHT22;22964;52.272;13.356;2022-08-03T07:20:00;30.40;38.30
37052;DHT22;22964;52.272;13.356;2022-08-03T07:22:27;30.60;38.20
37052;DHT22;22964;52.272;13.356;2022-08-03T07:24:53;30.70;37.70
37052;DHT22;22964;52.272;13.356;2022-08-03T07:27:18;30.90;38.00
37052;DHT22;22964;52.272;13.356;2022-08-03T07:29:44;31.00;37.70
37052;DHT22;22964;52.272;13.356;2022-08-03T07:32:10;31.20;37.60
37052;DHT22;22964;52.272;13.356;2022-08-03T07:34:36;31.30;37.30
37052;DHT22;22964;52.272;13.356;2022-08-03T07:37:01;31.50;37.00
37052;DHT22;22964;52.272;13.356;2022-08-03T07:39:27;31.70;36.70
37052;DHT22;22964;52.272;13.356;2022-08-03T07:41:52;31.80;36.40
37052;DHT22;22964;52.272;13.356;2022-08-03T07:44:19;31.90;36.10
37052;DHT22;22964;52.272;13.356;2022-08-03T07:46:44;32.20;35.90
37052;DHT22;22964;52.272;13.356;2022-08-03T07:49:10;32.30;36.30
37052;DHT22;22964;52.272;13.356;2022-08-03T07:51:36;32.40;35.40
37052;DHT22;22964;52.272;13.356;2022-08-03T07:54:02;32.50;36.10
37052;DHT22;22964;52.272;13.356;2022-08-03T07:56:28;32.70;35.00
37052;DHT22;22964;52.272;13.356;2022-08-03T07:58:54;32.80;35.00
37052;DHT22;22964;52.272;13.356;2022-08-03T08:01:20;33.00;34.60
37052;DHT22;22964;52.272;13.356;2022-08-03T08:03:47;33.10;34.40
37052;DHT22;22964;52.272;13.356;2022-08-03T08:06:13;33.20;34.30
37052;DHT22;22964;52.272;13.356;2022-08-03T08:08:39;33.40;33.80
37052;DHT22;22964;52.272;13.356;2022-08-03T08:11:05;33.50;33.30
37052;DHT22;22964;52.272;13.356;2022-08-03T08:13:31;33.60;33.40
37052;DHT22;22964;52.272;13.356;2022-08-03T08:15:57;33.70;33.20
37052;DHT22;22964;52.272;13.356;2022-08-03T08:18:23;33.90;33.90
37052;DHT22;22964;52.272;13.356;2022-08-03T08:20:49;34.00;33.00
37052;DHT22;22964;52.272;13.356;2022-08-03T08:23:15;34.10;32.90
37052;DHT22;22964;52.272;13.356;2022-08-03T08:25:48;34.20;32.70
37052;DHT22;22964;52.272;13.356;2022-08-03T08:28:16;34.40;32.60
37052;DHT22;22964;52.272;13.356;2022-08-03T08:30:42;34.50;32.10
37052;DHT22;22964;52.272;13.356;2022-08-03T08:33:08;34.50;31.90
37052;DHT22;22964;52.272;13.356;2022-08-03T08:35:33;34.60;31.60
37052;DHT22;22964;52.272;13.356;2022-08-03T08:38:00;34.70;31.40
37052;DHT22;22964;52.272;13.356;2022-08-03T08:40:26;34.80;31.30
37052;DHT22;22964;52.272;13.356;2022-08-03T08:42:52;34.90;31.10
37052;DHT22;22964;52.272;13.356;2022-08-03T08:45:18;34.90;30.90
37052;DHT22;22964;52.272;13.356;2022-08-03T08:47:46;35.00;31.00
37052;DHT22;22964;52.272;13.356;2022-08-03T08:50:13;35.10;30.30
37052;DHT22;22964;52.272;13.356;2022-08-03T08:52:42;35.20;30.10
37052;DHT22;22964;52.272;13.356;2022-08-03T08:55:13;35.30;30.20
37052;DHT22;22964;52.272;13.356;2022-08-03T08:57:46;35.40;30.00
37052;DHT22;22964;52.272;13.356;2022-08-03T09:00:12;35.50;29.90
37052;DHT22;22964;52.272;13.356;2022-08-03T09:02:39;35.60;30.10
37052;DHT22;22964;52.272;13.356;2022-08-03T09:05:17;35.70;29.90
37052;DHT22;22964;52.272;13.356;2022-08-03T09:07:45;35.90;29.60
37052;DHT22;22964;52.272;13.356;2022-08-03T09:10:12;36.00;29.60
37052;DHT22;22964;52.272;13.356;2022-08-03T09:12:41;36.10;29.00
37052;DHT22;22964;52.272;13.356;2022-08-03T09:15:27;36.30;28.60
37052;DHT22;22964;52.272;13.356;2022-08-03T09:17:56;36.40;28.20
37052;DHT22;22964;52.272;13.356;2022-08-03T09:20:23;36.50;28.70
37052;DHT22;22964;52.272;13.356;2022-08-03T09:22:53;36.50;28.60
37052;DHT22;22964;52.272;13.356;2022-08-03T09:25:25;36.60;28.10
37052;DHT22;22964;52.272;13.356;2022-08-03T09:27:51;36.70;28.60
37052;DHT22;22964;52.272;13.356;2022-08-03T09:30:18;36.80;28.30
37052;DHT22;22964;52.272;13.356;2022-08-03T09:32:44;36.90;28.20
37052;DHT22;22964;52.272;13.356;2022-08-03T09:35:12;36.90;27.90
37052;DHT22;22964;52.272;13.356;2022-08-03T09:37:38;37.00;27.80
37052;DHT22;22964;52.272;13.356;2022-08-03T09:40:04;37.10;27.70
37052;DHT22;22964;52.272;13.356;2022-08-03T09:42:30;37.20;27.60
37052;DHT22;22964;52.272;13.356;2022-08-03T09:44:56;37.30;27.70
37052;DHT22;22964;52.272;13.356;2022-08-03T09:47:33;37.30;27.50
37052;DHT22;22964;52.272;13.356;2022-08-03T09:50:04;37.40;26.40
37052;DHT22;22964;52.272;13.356;2022-08-03T09:52:38;37.50;27.00
37052;DHT22;22964;52.272;13.356;2022-08-03T09:55:09;37.60;26.90
37052;DHT22;22964;52.272;13.356;2022-08-03T09:57:35;37.70;26.50
37052;DHT22;22964;52.272;13.356;2022-08-03T10:00:10;37.80;26.80
37052;DHT22;22964;52.272;13.356;2022-08-03T10:02:41;37.90;25.90
37052;DHT22;22964;52.272;13.356;2022-08-03T10:05:08;38.00;26.40
37052;DHT22;22964;52.272;13.356;2022-08-03T10:07:45;38.00;26.30
37052;DHT22;22964;52.272;13.356;2022-08-03T10:10:12;38.00;25.70
37052;DHT22;22964;52.272;13.356;2022-08-03T10:12:40;38.10;26.40
37052;DHT22;22964;52.272;13.356;2022-08-03T10:15:07;38.20;26.00
37052;DHT22;22964;52.272;13.356;2022-08-03T10:17:33;38.30;26.10
37052;DHT22;22964;52.272;13.356;2022-08-03T10:19:59;38.40;26.10
37052;DHT22;22964;52.272;13.356;2022-08-03T10:22:32;38.40;26.20
37052;DHT22;22964;52.272;13.356;2022-08-03T10:27:28;38.60;25.30
37052;DHT22;22964;52.272;13.356;2022-08-03T10:30:00;38.80;25.50
37052;DHT22;22964;52.272;13.356;2022-08-03T10:35:19;39.00;25.10
37052;DHT22;22964;52.272;13.356;2022-08-03T10:37:56;39.10;25.10
37052;DHT22;22964;52.272;13.356;2022-08-03T10:40:23;39.30;24.60
37052;DHT22;22964;52.272;13.356;2022-08-03T10:42:50;39.30;24.90
37052;DHT22;22964;52.272;13.356;2022-08-03T10:45:26;39.40;25.00
37052;DHT22;22964;52.272;13.356;2022-08-03T10:47:54;39.40;24.10
37052;DHT22;22964;52.272;13.356;2022-08-03T10:50:23;39.30;24.40
37052;DHT22;22964;52.272;13.356;2022-08-03T10:52:57;39.30;24.30
37052;DHT22;22964;52.272;13.356;2022-08-03T10:55:42;39.30;24.00
37052;DHT22;22964;52.272;13.356;2022-08-03T10:58:45;39.30;23.70
37052;DHT22;22964;52.272;13.356;2022-08-03T11:01:12;39.40;24.30
37052;DHT22;22964;52.272;13.356;2022-08-03T11:06:25;39.40;23.90
37052;DHT22;22964;52.272;13.356;2022-08-03T11:11:40;39.50;23.60
37052;DHT22;22964;52.272;13.356;2022-08-03T11:14:14;39.50;23.60
37052;DHT22;22964;52.272;13.356;2022-08-03T11:19:15;39.60;23.60
37052;DHT22;22964;52.272;13.356;2022-08-03T11:27:22;39.90;23.30
37052;DHT22;22964;52.272;13.356;2022-08-03T11:30:21;40.00;23.20
37052;DHT22;22964;52.272;13.356;2022-08-03T11:32:52;40.10;23.90
37052;DHT22;22964;52.272;13.356;2022-08-03T11:35:30;40.20;23.20
37052;DHT22;22964;52.272;13.356;2022-08-03T11:40:45;40.30;23.40
37052;DHT22;22964;52.272;13.356;2022-08-03T11:45:56;40.60;23.00
37052;DHT22;22964;52.272;13.356;2022-08-03T11:48:27;40.70;23.00
37052;DHT22;22964;52.272;13.356;2022-08-03T11:50:53;40.80;22.70
37052;DHT22;22964;52.272;13.356;2022-08-03T11:53:19;40.80;22.90
37052;DHT22;22964;52.272;13.356;2022-08-03T11:55:46;40.90;22.90
37052;DHT22;22964;52.272;13.356;2022-08-03T11:58:17;40.90;22.60
37052;DHT22;22964;52.272;13.356;2022-08-03T12:00:42;40.90;22.40
37052;DHT22;22964;52.272;13.356;2022-08-03T12:03:10;40.90;22.20
37052;DHT22;22964;52.272;13.356;2022-08-03T12:05:53;40.90;22.10
37052;DHT22;22964;52.272;13.356;2022-08-03T12:10:51;40.90;21.70
37052;DHT22;22964;52.272;13.356;2022-08-03T12:13:17;40.90;22.10
37052;DHT22;22964;52.272;13.356;2022-08-03T12:15:43;40.90;22.00
37052;DHT22;22964;52.272;13.356;2022-08-03T12:18:16;40.90;21.90
37052;DHT22;22964;52.272;13.356;2022-08-03T12:20:43;40.90;21.80
37052;DHT22;22964;52.272;13.356;2022-08-03T12:23:10;40.90;21.80
37052;DHT22;22964;52.272;13.356;2022-08-03T12:25:38;40.90;22.10
37052;DHT22;22964;52.272;13.356;2022-08-03T12:28:15;40.90;21.80
37052;DHT22;22964;52.272;13.356;2022-08-03T12:30:45;41.00;21.70
37052;DHT22;22964;52.272;13.356;2022-08-03T12:33:25;41.10;21.80
37052;DHT22;22964;52.272;13.356;2022-08-03T12:36:08;41.10;21.50
37052;DHT22;22964;52.272;13.356;2022-08-03T12:38:36;41.20;21.50
37052;DHT22;22964;52.272;13.356;2022-08-03T12:41:05;41.20;21.70
37052;DHT22;22964;52.272;13.356;2022-08-03T12:43:31;41.30;21.40
37052;DHT22;22964;52.272;13.356;2022-08-03T12:46:29;41.30;21.50
37052;DHT22;22964;52.272;13.356;2022-08-03T12:49:13;41.30;21.60
37052;DHT22;22964;52.272;13.356;2022-08-03T12:54:22;41.30;21.10
37052;DHT22;22964;52.272;13.356;2022-08-03T12:57:06;41.20;21.00
37052;DHT22;22964;52.272;13.356;2022-08-03T12:59:43;41.20;20.90
37052;DHT22;22964;52.272;13.356;2022-08-03T13:02:22;41.20;20.80
37052;DHT22;22964;52.272;13.356;2022-08-03T13:04:49;41.20;21.00
37052;DHT22;22964;52.272;13.356;2022-08-03T13:07:16;41.20;21.20
37052;DHT22;22964;52.272;13.356;2022-08-03T13:09:47;41.20;21.00
37052;DHT22;22964;52.272;13.356;2022-08-03T13:12:16;41.20;21.00
37052;DHT22;22964;52.272;13.356;2022-08-03T13:14:44;41.20;21.00
37052;DHT22;22964;52.272;13.356;2022-08-03T13:17:10;41.30;21.20
37052;DHT22;22964;52.272;13.356;2022-08-03T13:19:37;41.30;21.20
37052;DHT22;22964;52.272;13.356;2022-08-03T13:24:42;41.40;20.70
37052;DHT22;22964;52.272;13.356;2022-08-03T13:27:08;41.40;21.00
37052;DHT22;22964;52.272;13.356;2022-08-03T13:29:34;41.40;20.80
37052;DHT22;22964;52.272;13.356;2022-08-03T13:32:03;41.40;20.90
37052;DHT22;22964;52.272;13.356;2022-08-03T13:34:29;41.40;20.90
37052;DHT22;22964;52.272;13.356;2022-08-03T13:36:55;41.40;21.20
37052;DHT22;22964;52.272;13.356;2022-08-03T13:39:20;41.40;21.20
37052;DHT22;22964;52.272;13.356;2022-08-03T13:41:46;41.40;21.20
37052;DHT22;22964;52.272;13.356;2022-08-03T13:44:12;41.40;21.80
37052;DHT22;22964;52.272;13.356;2022-08-03T13:46:38;41.40;21.10
37052;DHT22;22964;52.272;13.356;2022-08-03T13:49:05;41.50;21.00
37052;DHT22;22964;52.272;13.356;2022-08-03T13:51:31;41.60;21.20
37052;DHT22;22964;52.272;13.356;2022-08-03T13:53:56;41.70;21.10
37052;DHT22;22964;52.272;13.356;2022-08-03T13:56:25;41.80;21.00
37052;DHT22;22964;52.272;13.356;2022-08-03T13:58:50;41.80;20.70
37052;DHT22;22964;52.272;13.356;2022-08-03T14:01:17;41.90;20.90
37052;DHT22;22964;52.272;13.356;2022-08-03T14:03:42;42.00;20.70
37052;DHT22;22964;52.272;13.356;2022-08-03T14:06:08;42.00;20.70
37052;DHT22;22964;52.272;13.356;2022-08-03T14:08:34;42.00;20.90
37052;DHT22;22964;52.272;13.356;2022-08-03T14:10:59;42.10;20.70
37052;DHT22;22964;52.272;13.356;2022-08-03T14:13:25;42.10;20.60
37052;DHT22;22964;52.272;13.356;2022-08-03T14:15:51;42.20;20.50
37052;DHT22;22964;52.272;13.356;2022-08-03T14:18:18;42.20;20.40
37052;DHT22;22964;52.272;13.356;2022-08-03T14:20:45;42.20;20.40
37052;DHT22;22964;52.272;13.356;2022-08-03T14:23:10;42.20;20.40
37052;DHT22;22964;52.272;13.356;2022-08-03T14:25:37;42.20;20.30
37052;DHT22;22964;52.272;13.356;2022-08-03T14:28:03;42.20;20.20
37052;DHT22;22964;52.272;13.356;2022-08-03T14:30:30;42.20;20.50
37052;DHT22;22964;52.272;13.356;2022-08-03T14:32:55;42.20;20.40
37052;DHT22;22964;52.272;13.356;2022-08-03T14:35:21;42.20;20.30
37052;DHT22;22964;52.272;13.356;2022-08-03T14:37:47;42.30;20.60
37052;DHT22;22964;52.272;13.356;2022-08-03T14:40:12;42.30;20.50
37052;DHT22;22964;52.272;13.356;2022-08-03T14:42:38;42.40;20.60
37052;DHT22;22964;52.272;13.356;2022-08-03T14:45:04;42.40;20.50
37052;DHT22;22964;52.272;13.356;2022-08-03T14:47:30;42.50;21.00
37052;DHT22;22964;52.272;13.356;2022-08-03T14:49:55;42.60;20.30
37052;DHT22;22964;52.272;13.356;2022-08-03T14:52:21;42.60;20.20
37052;DHT22;22964;52.272;13.356;2022-08-03T14:54:47;42.60;20.80
37052;DHT22;22964;52.272;13.356;2022-08-03T14:57:12;42.60;20.20
37052;DHT22;22964;52.272;13.356;2022-08-03T14:59:38;42.50;20.20
37052;DHT22;22964;52.272;13.356;2022-08-03T15:02:04;42.50;20.20
37052;DHT22;22964;52.272;13.356;2022-08-03T15:04:29;42.50;20.20
37052;DHT22;22964;52.272;13.356;2022-08-03T15:06:55;42.30;20.30
37052;DHT22;22964;52.272;13.356;2022-08-03T15:09:21;42.30;20.20
37052;DHT22;22964;52.272;13.356;2022-08-03T15:11:46;42.30;20.20
37052;DHT22;22964;52.272;13.356;2022-08-03T15:14:12;42.30;20.20
37052;DHT22;22964;52.272;13.356;2022-08-03T15:16:38;42.30;20.30
37052;DHT22;22964;52.272;13.356;2022-08-03T15:19:04;42.20;20.40
37052;DHT22;22964;52.272;13.356;2022-08-03T15:21:30;42.20;20.40
37052;DHT22;22964;52.272;13.356;2022-08-03T15:23:56;42.20;20.50
37052;DHT22;22964;52.272;13.356;2022-08-03T15:26:22;42.10;20.50
37052;DHT22;22964;52.272;13.356;2022-08-03T15:28:47;42.00;20.30
37052;DHT22;22964;52.272;13.356;2022-08-03T15:31:13;42.00;20.40
37052;DHT22;22964;52.272;13.356;2022-08-03T15:33:39;42.00;20.40
37052;DHT22;22964;52.272;13.356;2022-08-03T15:36:04;41.90;20.40
37052;DHT22;22964;52.272;13.356;2022-08-03T15:38:30;41.80;20.60
37052;DHT22;22964;52.272;13.356;2022-08-03T15:40:56;41.70;20.50
37052;DHT22;22964;52.272;13.356;2022-08-03T15:43:23;41.70;20.50
37052;DHT22;22964;52.272;13.356;2022-08-03T15:45:49;41.60;20.60
37052;DHT22;22964;52.272;13.356;2022-08-03T15:48:15;41.50;21.30
37052;DHT22;22964;52.272;13.356;2022-08-03T15:50:41;41.50;20.80
37052;DHT22;22964;52.272;13.356;2022-08-03T15:53:07;41.50;20.80
37052;DHT22;22964;52.272;13.356;2022-08-03T15:55:33;41.40;20.70
37052;DHT22;22964;52.272;13.356;2022-08-03T15:57:59;41.40;20.90
37052;DHT22;22964;52.272;13.356;2022-08-03T16:00:24;41.40;20.90
37052;DHT22;22964;52.272;13.356;2022-08-03T16:02:50;41.40;20.80
37052;DHT22;22964;52.272;13.356;2022-08-03T16:05:16;41.40;20.80